createdAt,value
2022-08-08T00:00:50.204Z,33.91
2022-08-08T00:01:08.914Z,33.96
2022-08-08T00:02:32.954Z,33.71
2022-08-08T00:03:20.074Z,33.68
2022-08-08T00:04:07.968Z,33.94
2022-08-08T00:05:09.794Z,34.17
2022-08-08T00:06:07.942Z,34.13
2022-08-08T00:07:12.517Z,34.21
2022-08-08T00:08:07.937Z,34.42
2022-08-08T00:09:08.159Z,34.47
2022-08-08T00:10:07.910Z,34.47
2022-08-08T00:11:13.116Z,34.47
2022-08-08T00:12:10.271Z,34.43
2022-08-08T00:13:10.300Z,34.08
2022-08-08T00:17:22.946Z,34.61
2022-08-08T00:18:07.920Z,34.29
2022-08-08T00:19:07.931Z,33.95
2022-08-08T00:20:07.915Z,33.51
2022-08-08T00:21:08.036Z,33.92
2022-08-08T00:22:10.284Z,34.38
2022-08-08T00:23:08.200Z,34.48
2022-08-08T00:24:07.915Z,34.62
2022-08-08T00:25:08.481Z,34.3
2022-08-08T00:26:07.921Z,34.04
2022-08-08T00:27:07.928Z,33.85
2022-08-08T00:28:07.931Z,33.77
2022-08-08T00:29:08.399Z,33.96
2022-08-08T00:30:07.912Z,34.23
2022-08-08T00:32:21.072Z,34.42
2022-08-08T00:32:28.420Z,34.44
2022-08-08T00:33:07.920Z,34.6
2022-08-08T00:34:18.101Z,34.66
2022-08-08T00:35:07.909Z,34.55
2022-08-08T00:36:07.909Z,34.45
2022-08-08T00:37:08.157Z,34.61
2022-08-08T00:38:07.932Z,34.72
2022-08-08T00:41:07.750Z,34.67
2022-08-08T00:41:12.290Z,34.78
2022-08-08T00:41:14.512Z,34.54
2022-08-08T00:42:19.709Z,34.46
2022-08-08T00:43:18.575Z,34.62
2022-08-08T00:44:08.026Z,34.58
2022-08-08T00:45:20.938Z,34.71
2022-08-08T00:46:16.546Z,34.68
2022-08-08T00:47:14.266Z,34.74
2022-08-08T00:48:29.420Z,34.89
2022-08-08T00:49:17.200Z,34.84
2022-08-08T00:50:07.923Z,34.96
2022-08-08T00:51:07.925Z,35.15
2022-08-08T00:52:07.943Z,35.08
2022-08-08T00:53:15.567Z,34.87
2022-08-08T00:54:13.794Z,34.91
2022-08-08T00:55:07.912Z,34.91
2022-08-08T00:56:09.261Z,35.1
2022-08-08T00:57:07.937Z,35.16
2022-08-08T00:58:13.554Z,35.17
2022-08-08T00:59:07.936Z,35.17
2022-08-08T01:00:07.917Z,35.19
2022-08-08T01:01:07.994Z,35.08
2022-08-08T01:02:12.931Z,34.75
2022-08-08T01:03:59.767Z,34.81
2022-08-08T01:04:08.227Z,34.79
2022-08-08T01:05:07.912Z,35.08
2022-08-08T01:06:08.039Z,35.08
2022-08-08T01:07:07.929Z,35.45
2022-08-08T01:08:07.942Z,35.51
2022-08-08T01:09:35.656Z,35.49
2022-08-08T01:10:07.915Z,35.4
2022-08-08T01:11:08.288Z,35.47
2022-08-08T01:12:07.938Z,35.7
2022-08-08T01:13:07.931Z,35.69
2022-08-08T01:14:13.545Z,35.55
2022-08-08T01:15:07.916Z,35.55
2022-08-08T01:16:07.922Z,35.33
2022-08-08T01:17:07.969Z,35.57
2022-08-08T01:18:16.121Z,35.71
2022-08-08T01:19:13.749Z,35.74
2022-08-08T01:20:07.915Z,35.79
2022-08-08T01:21:07.925Z,35.66
2022-08-08T01:22:15.620Z,35.52
2022-08-08T01:23:07.933Z,35.49
2022-08-08T01:24:13.684Z,35.36
2022-08-08T01:25:08.318Z,35.36
2022-08-08T01:26:11.703Z,35.31
2022-08-08T01:32:15.944Z,35.82
2022-08-08T01:33:16.450Z,35.91
2022-08-08T01:34:07.943Z,35.91
2022-08-08T01:35:11.776Z,35.93
2022-08-08T01:36:07.945Z,36.03
2022-08-08T01:37:07.914Z,36.1
2022-08-08T01:38:07.953Z,36.11
2022-08-08T01:39:07.956Z,35.87
2022-08-08T01:40:07.910Z,35.85
2022-08-08T01:41:09.914Z,35.94
2022-08-08T01:42:08.215Z,35.94
2022-08-08T01:43:07.934Z,36.09
2022-08-08T01:44:07.940Z,36.22
2022-08-08T01:45:09.936Z,36.28
2022-08-08T01:46:07.927Z,36.47
2022-08-08T01:48:14.444Z,36.49
2022-08-08T01:48:16.369Z,36.58
2022-08-08T01:49:11.005Z,36.54
2022-08-08T01:50:07.962Z,36.47
2022-08-08T01:51:31.675Z,36.48
2022-08-08T01:53:14.998Z,36.26
2022-08-08T01:55:16.602Z,36.06
2022-08-08T01:55:18.907Z,35.32
2022-08-08T01:55:26.364Z,35.74
2022-08-08T01:56:28.617Z,35.23
2022-08-08T01:57:07.929Z,35.18
2022-08-08T01:58:13.096Z,35.67
2022-08-08T01:59:08.024Z,35.79
2022-08-08T02:00:07.917Z,35.64
2022-08-08T02:01:08.869Z,35.9
2022-08-08T02:02:08.270Z,36.18
2022-08-08T02:03:07.949Z,36.21
2022-08-08T02:04:08.739Z,36.45
2022-08-08T02:05:07.921Z,36.29
2022-08-08T02:06:07.942Z,36.21
2022-08-08T02:07:07.935Z,36.18
2022-08-08T02:08:08.752Z,35.95
2022-08-08T02:09:17.648Z,36.22
2022-08-08T02:10:11.900Z,36.41
2022-08-08T02:11:07.933Z,36.62
2022-08-08T02:12:07.917Z,36.59
2022-08-08T02:13:07.935Z,36.68
2022-08-08T02:14:07.922Z,36.67
2022-08-08T02:15:12.253Z,36.64
2022-08-08T02:16:07.928Z,36.69
2022-08-08T02:17:10.587Z,36.63
2022-08-08T02:18:10.474Z,36.71
2022-08-08T02:19:26.959Z,36.71
2022-08-08T02:20:14.717Z,36.41
2022-08-08T02:21:08.049Z,36.39
2022-08-08T02:22:07.919Z,36.39
2022-08-08T02:23:07.937Z,36.42
2022-08-08T02:24:07.910Z,36.51
2022-08-08T02:25:11.827Z,36.64
2022-08-08T02:26:07.918Z,37.16
2022-08-08T02:27:07.919Z,37.07
2022-08-08T02:28:07.943Z,37.11
2022-08-08T02:29:07.917Z,37.6
2022-08-08T02:30:07.931Z,37.79
2022-08-08T02:31:24.557Z,37.79
2022-08-08T02:32:08.532Z,37.81
2022-08-08T02:33:07.935Z,38.26
2022-08-08T02:34:09.576Z,37.94
2022-08-08T02:35:11.787Z,37.72
2022-08-08T02:36:07.917Z,37.64
2022-08-08T02:37:09.919Z,37.69
2022-08-08T02:38:09.112Z,37.58
2022-08-08T02:39:42.682Z,37.53
2022-08-08T02:40:08.625Z,37.17
2022-08-08T02:41:07.934Z,36.8
2022-08-08T02:42:10.669Z,37.06
2022-08-08T02:44:38.479Z,36.57
2022-08-08T02:44:43.139Z,37.05
2022-08-08T02:45:18.181Z,36.56
2022-08-08T02:46:08.075Z,36.69
2022-08-08T02:47:07.928Z,36.86
2022-08-08T02:48:07.947Z,36.88
2022-08-08T02:49:07.934Z,36.88
2022-08-08T02:50:07.915Z,36.91
2022-08-08T02:51:07.923Z,37.18
2022-08-08T02:52:32.849Z,37.3
2022-08-08T02:53:07.948Z,37.44
2022-08-08T02:54:07.927Z,37.45
2022-08-08T02:55:10.454Z,37.27
2022-08-08T02:56:08.488Z,37.35
2022-08-08T02:57:12.275Z,37.3
2022-08-08T02:58:07.942Z,37.27
2022-08-08T02:59:26.204Z,37.12
2022-08-08T03:00:26.920Z,37.33
2022-08-08T03:01:14.603Z,37.52
2022-08-08T03:02:08.028Z,37.53
2022-08-08T03:03:08.147Z,37.6
2022-08-08T03:05:04.437Z,37.76
2022-08-08T03:05:09.473Z,37.97
2022-08-08T03:06:07.918Z,38.12
2022-08-08T03:07:07.918Z,38.09
2022-08-08T03:08:07.953Z,38.05
2022-08-08T03:09:07.923Z,38.05
2022-08-08T03:10:07.941Z,38.21
2022-08-08T03:11:07.924Z,38.34
2022-08-08T03:12:08.465Z,38.39
2022-08-08T03:15:55.699Z,38.33
2022-08-08T03:16:00.663Z,37.91
2022-08-08T03:16:03.867Z,38.14
2022-08-08T03:16:08.121Z,38.14
2022-08-08T03:17:08.584Z,38.4
2022-08-08T03:18:07.989Z,38.51
2022-08-08T03:19:07.932Z,38.48
2022-08-08T03:20:10.336Z,38.45
2022-08-08T03:21:09.942Z,38.29
2022-08-08T03:22:38.516Z,38.14
2022-08-08T03:23:07.944Z,38.05
2022-08-08T03:24:07.921Z,37.96
2022-08-08T03:25:09.215Z,38.31
2022-08-08T03:26:07.923Z,38.35
2022-08-08T03:27:08.095Z,38.38
2022-08-08T03:28:07.931Z,38.59
2022-08-08T03:29:17.221Z,38.71
2022-08-08T03:30:07.921Z,38.71
2022-08-08T03:31:24.729Z,38.88
2022-08-08T03:32:08.641Z,38.75
2022-08-08T03:33:55.510Z,38.74
2022-08-08T03:34:07.913Z,38.86
2022-08-08T03:35:09.615Z,39.01
2022-08-08T03:36:10.285Z,38.81
2022-08-08T03:37:20.231Z,38.42
2022-08-08T03:38:56.528Z,38.14
2022-08-08T03:39:14.677Z,37.79
2022-08-08T03:40:10.792Z,37.51
2022-08-08T03:41:22.826Z,37.64
2022-08-08T03:42:11.831Z,37.66
2022-08-08T03:43:18.112Z,37.1
2022-08-08T03:44:07.935Z,37.1
2022-08-08T03:46:05.919Z,37.58
2022-08-08T03:46:09.106Z,37.71
2022-08-08T03:47:19.472Z,37.54
2022-08-08T03:48:07.935Z,37.65
2022-08-08T03:49:30.907Z,37.87
2022-08-08T03:50:07.936Z,37.81
2022-08-08T03:51:07.930Z,37.81
2022-08-08T03:52:07.946Z,37.49
2022-08-08T03:53:07.933Z,37.28
2022-08-08T03:54:08.442Z,37.26
2022-08-08T03:55:20.401Z,37.34
2022-08-08T03:56:09.629Z,37.33
2022-08-08T03:58:09.493Z,37.08
2022-08-08T03:58:31.899Z,36.88
2022-08-08T03:59:07.926Z,36.88
2022-08-08T04:00:11.878Z,36.71
2022-08-08T04:01:24.271Z,36.31
2022-08-08T04:02:33.367Z,36.46
2022-08-08T04:03:11.515Z,36.43
2022-08-08T04:04:07.969Z,36.31
2022-08-08T04:05:10.233Z,36.27
2022-08-08T04:06:07.920Z,36.21
2022-08-08T04:07:07.926Z,36.02
2022-08-08T04:08:07.939Z,35.94
2022-08-08T04:09:11.460Z,35.96
2022-08-08T04:10:07.938Z,35.85
2022-08-08T04:11:11.455Z,35.81
2022-08-08T04:12:07.943Z,35.59
2022-08-08T04:13:18.647Z,35.59
2022-08-08T04:14:34.820Z,35.65
2022-08-08T04:15:07.940Z,35.68
2022-08-08T04:16:07.930Z,35.66
2022-08-08T04:17:22.557Z,35.31
2022-08-08T04:18:09.439Z,35.35
2022-08-08T04:19:25.027Z,35.35
2022-08-08T04:20:08.300Z,35.79
2022-08-08T04:21:07.923Z,35.82
2022-08-08T04:22:07.930Z,35.79
2022-08-08T04:23:08.000Z,35.74
2022-08-08T04:24:18.831Z,35.6
2022-08-08T04:25:07.911Z,35.42
2022-08-08T04:26:09.329Z,35.17
2022-08-08T04:27:19.486Z,34.98
2022-08-08T04:28:36.751Z,34.99
2022-08-08T04:29:07.927Z,35.01
2022-08-08T04:30:17.746Z,35.06
2022-08-08T04:31:07.934Z,35.22
2022-08-08T04:32:07.919Z,35.18
2022-08-08T04:33:08.050Z,34.94
2022-08-08T04:34:07.941Z,34.87
2022-08-08T04:35:07.916Z,34.8
2022-08-08T04:36:07.930Z,34.63
2022-08-08T04:37:07.932Z,34.44
2022-08-08T04:38:09.563Z,34.33
2022-08-08T04:40:04.390Z,34.38
2022-08-08T04:40:12.200Z,34.37
2022-08-08T04:41:08.020Z,34.08
2022-08-08T04:42:07.916Z,33.94
2022-08-08T04:43:08.866Z,33.85
2022-08-08T04:44:07.944Z,33.77
2022-08-08T04:45:07.924Z,33.54
2022-08-08T04:46:07.918Z,33.48
2022-08-08T04:47:07.928Z,33.48
2022-08-08T04:48:08.235Z,33.22
2022-08-08T04:49:11.417Z,33.21
2022-08-08T04:50:07.915Z,33.29
2022-08-08T04:51:07.930Z,33.47
2022-08-08T04:52:07.931Z,33.34
2022-08-08T04:53:51.820Z,33.3
2022-08-08T04:54:39.679Z,33.04
2022-08-08T04:55:07.913Z,33.19
2022-08-08T04:56:07.936Z,33.01
2022-08-08T04:57:07.923Z,32.85
2022-08-08T04:58:11.113Z,32.96
2022-08-08T04:59:07.923Z,32.56
2022-08-08T05:00:07.930Z,32.4
2022-08-08T05:01:10.806Z,32.32
2022-08-08T05:02:07.974Z,32.3
2022-08-08T05:03:07.942Z,32.25
2022-08-08T05:04:12.432Z,32.2
2022-08-08T05:05:07.918Z,31.98
2022-08-08T05:06:13.096Z,31.97
2022-08-08T05:07:07.930Z,31.9
2022-08-08T05:08:07.946Z,31.91
2022-08-08T05:09:07.924Z,31.89
2022-08-08T05:10:07.910Z,32
2022-08-08T05:11:07.988Z,31.97
2022-08-08T05:12:09.309Z,31.95
2022-08-08T05:13:12.902Z,32.06
2022-08-08T05:14:07.925Z,32.09
2022-08-08T05:15:07.910Z,31.76
2022-08-08T05:16:51.309Z,31.74
2022-08-08T05:17:08.779Z,31.5
2022-08-08T05:18:07.936Z,31.66
2022-08-08T05:19:07.936Z,31.24
2022-08-08T05:20:13.374Z,31.26
2022-08-08T05:21:07.924Z,31.21
2022-08-08T05:22:07.919Z,31.3
2022-08-08T05:23:07.936Z,31.23
2022-08-08T05:24:08.679Z,31.12
2022-08-08T05:25:07.923Z,31.12
2022-08-08T05:26:07.918Z,31.01
2022-08-08T05:27:07.926Z,30.9
2022-08-08T05:28:07.953Z,30.86
2022-08-08T05:29:07.924Z,30.86
2022-08-08T05:30:07.922Z,30.82
2022-08-08T05:31:19.335Z,30.87
2022-08-08T05:32:08.096Z,30.78
2022-08-08T05:33:07.944Z,31.04
2022-08-08T05:34:07.932Z,30.69
2022-08-08T05:35:09.642Z,30.75
2022-08-08T05:36:07.913Z,30.67
2022-08-08T05:37:17.327Z,30.62
2022-08-08T05:38:30.137Z,30.68
2022-08-08T05:39:09.574Z,30.62
2022-08-08T05:40:09.378Z,30.62
2022-08-08T05:41:07.915Z,30.55
2022-08-08T05:42:07.911Z,30.54
2022-08-08T05:43:38.432Z,30.52
2022-08-08T05:44:07.912Z,30.55
2022-08-08T05:45:24.596Z,30.51
2022-08-08T05:46:08.435Z,30.41
2022-08-08T05:47:07.920Z,30.22
2022-08-08T05:48:08.975Z,30.19
2022-08-08T05:49:11.006Z,30.24
2022-08-08T05:50:07.937Z,30.46
2022-08-08T05:51:14.708Z,30.39
2022-08-08T05:52:09.589Z,30.23
2022-08-08T05:53:53.584Z,30.14
2022-08-08T05:54:27.566Z,30.14
2022-08-08T05:55:09.911Z,30.07
2022-08-08T05:56:14.447Z,29.96
2022-08-08T05:57:07.929Z,29.96
2022-08-08T05:58:17.994Z,29.98
2022-08-08T05:59:12.706Z,29.96
2022-08-08T06:00:22.606Z,29.91
2022-08-08T06:01:07.959Z,29.93
2022-08-08T06:02:07.930Z,29.81
2022-08-08T06:03:07.981Z,29.82
2022-08-08T06:04:08.340Z,29.75
2022-08-08T06:05:35.642Z,29.73
2022-08-08T06:06:07.918Z,29.68
2022-08-08T06:07:07.911Z,29.68
2022-08-08T06:08:09.058Z,29.49
2022-08-08T06:09:41.897Z,29.47
2022-08-08T06:10:07.928Z,29.47
2022-08-08T06:11:08.228Z,29.33
2022-08-08T06:12:07.933Z,29.31
2022-08-08T06:13:07.943Z,29.29
2022-08-08T06:14:07.934Z,29.24
2022-08-08T06:15:07.920Z,29.21
2022-08-08T06:16:07.930Z,29.21
2022-08-08T06:17:07.928Z,28.92
2022-08-08T06:18:20.119Z,28.93
2022-08-08T06:19:07.924Z,28.66
2022-08-08T06:20:07.928Z,28.62
2022-08-08T06:21:11.706Z,28.56
2022-08-08T06:22:32.601Z,28.5
2022-08-08T06:23:07.941Z,28.49
2022-08-08T06:24:13.781Z,29.05
2022-08-08T06:25:07.930Z,28.56
2022-08-08T06:26:38.604Z,28.44
2022-08-08T06:27:09.298Z,28.25
2022-08-08T06:28:07.943Z,28.15
2022-08-08T06:29:26.916Z,28.13
2022-08-08T06:30:19.716Z,28.13
2022-08-08T06:31:09.418Z,28.1
2022-08-08T06:32:10.806Z,27.93
2022-08-08T06:33:09.319Z,27.8
2022-08-08T06:34:25.014Z,27.64
2022-08-08T06:35:12.430Z,27.68
2022-08-08T06:36:09.988Z,27.74
2022-08-08T06:37:24.377Z,27.81
2022-08-08T06:38:14.044Z,27.89
2022-08-08T06:39:07.974Z,27.88
2022-08-08T06:40:10.456Z,27.84
2022-08-08T06:41:07.926Z,27.75
2022-08-08T06:42:07.924Z,27.71
2022-08-08T06:43:09.499Z,27.73
2022-08-08T06:44:07.915Z,27.73
2022-08-08T06:45:07.938Z,27.59
2022-08-08T06:46:09.249Z,27.51
2022-08-08T06:47:07.930Z,27.48
2022-08-08T06:48:08.556Z,27.47
2022-08-08T06:49:11.053Z,27.46
2022-08-08T06:50:07.917Z,27.49
2022-08-08T06:51:08.592Z,27.4
2022-08-08T06:52:07.918Z,27.43
2022-08-08T06:53:10.170Z,27.24
2022-08-08T06:54:07.917Z,27.28
2022-08-08T06:55:07.916Z,27.28
2022-08-08T06:56:07.917Z,27.22
2022-08-08T06:57:08.716Z,27.19
2022-08-08T06:58:07.948Z,27.46
2022-08-08T06:59:12.168Z,27.26
2022-08-08T07:00:11.352Z,27.19
2022-08-08T07:01:52.222Z,27.04
2022-08-08T07:02:27.440Z,27
2022-08-08T07:03:08.008Z,27.01
2022-08-08T07:04:37.286Z,27.03
2022-08-08T07:05:12.081Z,27.04
2022-08-08T07:06:07.916Z,27.03
2022-08-08T07:07:10.524Z,27.02
2022-08-08T07:08:08.883Z,26.96
2022-08-08T07:13:07.946Z,26.91
2022-08-08T07:14:07.926Z,26.82
2022-08-08T07:15:11.469Z,26.73
2022-08-08T07:16:11.999Z,26.63
2022-08-08T07:17:09.078Z,26.57
2022-08-08T07:18:36.877Z,26.57
2022-08-08T07:19:07.924Z,26.5
2022-08-08T07:20:07.916Z,26.52
2022-08-08T07:21:18.675Z,26.45
2022-08-08T07:22:12.069Z,26.47
2022-08-08T07:23:07.938Z,26.45
2022-08-08T07:24:09.314Z,26.48
2022-08-08T07:25:07.923Z,26.48
2022-08-08T07:26:07.931Z,26.47
2022-08-08T07:27:09.323Z,26.35
2022-08-08T07:28:08.379Z,26.37
2022-08-08T07:29:11.691Z,26.33
2022-08-08T07:30:13.742Z,26.26
2022-08-08T07:31:07.926Z,26.21
2022-08-08T07:32:07.925Z,26.19
2022-08-08T07:33:07.934Z,26.14
2022-08-08T07:34:09.149Z,26.1
2022-08-08T07:35:08.582Z,26.18
2022-08-08T07:36:08.167Z,26.03
2022-08-08T07:37:12.062Z,26.05
2022-08-08T07:38:10.159Z,25.82
2022-08-08T07:39:07.994Z,25.94
2022-08-08T07:40:08.020Z,25.92
2022-08-08T07:41:08.907Z,25.91
2022-08-08T07:42:07.914Z,25.87
2022-08-08T07:43:09.301Z,25.89
2022-08-08T07:44:37.649Z,25.93
2022-08-08T07:45:07.913Z,25.93
2022-08-08T07:46:24.163Z,25.82
2022-08-08T07:47:07.928Z,25.77
2022-08-08T07:48:07.933Z,25.72
2022-08-08T07:49:07.921Z,25.69
2022-08-08T07:50:08.436Z,25.73
2022-08-08T07:51:10.918Z,25.73
2022-08-08T07:52:07.922Z,25.64
2022-08-08T07:53:07.935Z,25.63
2022-08-08T07:54:07.930Z,25.62
2022-08-08T07:55:07.915Z,25.59
2022-08-08T07:56:07.921Z,25.81
2022-08-08T07:57:08.939Z,25.66
2022-08-08T07:58:07.931Z,25.56
2022-08-08T07:59:07.925Z,25.63
2022-08-08T08:00:15.973Z,25.66
2022-08-08T08:01:08.276Z,25.57
2022-08-08T08:02:34.818Z,25.49
2022-08-08T08:03:12.482Z,25.51
2022-08-08T08:04:07.926Z,25.48
2022-08-08T08:05:14.402Z,25.52
2022-08-08T08:06:07.912Z,25.45
2022-08-08T08:07:07.925Z,25.45
2022-08-08T08:08:07.943Z,25.38
2022-08-08T08:09:07.934Z,25.25
2022-08-08T08:10:07.924Z,25.26
2022-08-08T08:11:07.929Z,25.28
2022-08-08T08:12:07.935Z,25.3
2022-08-08T08:13:07.925Z,25.29
2022-08-08T08:14:10.681Z,25.22
2022-08-08T08:15:07.915Z,25.28
2022-08-08T08:16:07.920Z,25.25
2022-08-08T08:17:08.633Z,25.25
2022-08-08T08:18:14.261Z,25.22
2022-08-08T08:19:07.963Z,25.22
2022-08-08T08:20:07.911Z,25.33
2022-08-08T08:21:14.616Z,25.31
2022-08-08T08:22:08.030Z,25.19
2022-08-08T08:23:07.960Z,25.2
2022-08-08T08:24:07.930Z,25.18
2022-08-08T08:25:08.594Z,25.18
2022-08-08T08:26:07.929Z,25.2
2022-08-08T08:27:08.370Z,25.19
2022-08-08T08:28:09.277Z,25.07
2022-08-08T08:29:07.934Z,25.07
2022-08-08T08:30:07.923Z,24.94
2022-08-08T08:31:08.942Z,25
2022-08-08T08:32:08.876Z,24.97
2022-08-08T08:33:11.040Z,25.06
2022-08-08T08:34:07.919Z,24.98
2022-08-08T08:35:07.916Z,24.94
2022-08-08T08:36:20.110Z,25.05
2022-08-08T08:37:08.776Z,24.91
2022-08-08T08:38:16.023Z,24.93
2022-08-08T08:39:17.343Z,24.9
2022-08-08T08:40:07.968Z,24.88
2022-08-08T08:41:16.837Z,24.93
2022-08-08T08:42:07.927Z,24.92
2022-08-08T08:43:11.776Z,24.98
2022-08-08T08:44:14.098Z,25
2022-08-08T08:45:21.737Z,24.91
2022-08-08T08:46:07.917Z,24.9
2022-08-08T08:47:08.246Z,24.9
2022-08-08T08:48:07.928Z,24.86
2022-08-08T08:49:07.927Z,24.86
2022-08-08T08:50:07.925Z,24.92
2022-08-08T08:51:07.920Z,24.9
2022-08-08T08:52:07.923Z,24.95
2022-08-08T08:53:27.712Z,24.94
2022-08-08T08:54:07.926Z,24.88
2022-08-08T08:55:07.914Z,24.84
2022-08-08T08:56:07.940Z,24.78
2022-08-08T08:57:17.125Z,24.79
2022-08-08T08:58:07.929Z,24.81
2022-08-08T08:59:08.974Z,24.81
2022-08-08T09:00:15.540Z,24.81
2022-08-08T09:01:09.806Z,24.77
2022-08-08T09:02:07.963Z,24.78
2022-08-08T09:03:07.938Z,24.79
2022-08-08T09:04:09.980Z,24.79
2022-08-08T09:05:07.917Z,24.79
2022-08-08T09:06:26.397Z,24.83
2022-08-08T09:07:12.778Z,24.85
2022-08-08T09:08:12.669Z,24.79
2022-08-08T09:09:26.149Z,24.77
2022-08-08T09:10:12.273Z,24.76
2022-08-08T09:11:07.922Z,24.78
2022-08-08T09:12:08.513Z,24.81
2022-08-08T09:13:07.936Z,24.78
2022-08-08T09:14:07.934Z,24.76
2022-08-08T09:15:07.916Z,24.77
2022-08-08T09:16:07.930Z,24.79
2022-08-08T09:17:12.881Z,24.82
2022-08-08T09:18:07.942Z,24.76
2022-08-08T09:19:07.929Z,24.77
2022-08-08T09:21:57.057Z,24.75
2022-08-08T09:22:01.477Z,24.77
2022-08-08T09:22:07.977Z,24.74
2022-08-08T09:23:10.477Z,24.73
2022-08-08T09:24:07.932Z,24.73
2022-08-08T09:25:07.916Z,24.74
2022-08-08T09:26:07.925Z,24.73
2022-08-08T09:27:07.929Z,24.75
2022-08-08T09:28:07.937Z,24.78
2022-08-08T09:29:08.399Z,24.78
2022-08-08T09:30:07.915Z,24.76
2022-08-08T09:31:12.751Z,24.78
2022-08-08T09:32:14.275Z,24.77
2022-08-08T09:33:54.181Z,24.74
2022-08-08T09:34:30.616Z,24.76
2022-08-08T09:35:08.588Z,24.73
2022-08-08T09:36:07.931Z,24.71
2022-08-08T09:37:39.560Z,24.73
2022-08-08T09:38:17.879Z,24.73
2022-08-08T09:39:10.117Z,24.74
2022-08-08T09:40:10.574Z,24.73
2022-08-08T09:41:07.911Z,24.72
2022-08-08T09:42:20.267Z,24.77
2022-08-08T09:43:16.815Z,24.72
2022-08-08T09:44:15.432Z,24.69
2022-08-08T09:45:08.100Z,24.73
2022-08-08T09:46:07.977Z,24.71
2022-08-08T09:47:26.671Z,24.72
2022-08-08T09:48:16.247Z,24.74
2022-08-08T09:49:41.533Z,24.73
2022-08-08T09:50:13.600Z,24.7
2022-08-08T09:51:07.939Z,24.73
2022-08-08T09:52:08.669Z,24.66
2022-08-08T09:53:14.444Z,24.65
2022-08-08T09:54:11.910Z,24.61
2022-08-08T09:55:07.927Z,24.67
2022-08-08T09:56:12.357Z,24.67
2022-08-08T09:57:16.266Z,24.68
2022-08-08T09:58:07.941Z,24.56
2022-08-08T09:59:32.038Z,24.59
2022-08-08T10:00:34.192Z,24.63
2022-08-08T10:01:15.340Z,24.6
2022-08-08T10:02:12.907Z,24.63
2022-08-08T10:03:07.950Z,24.61
2022-08-08T10:04:07.965Z,24.61
2022-08-08T10:05:14.462Z,24.61
2022-08-08T10:06:07.928Z,24.61
2022-08-08T10:07:07.936Z,24.61
2022-08-08T10:08:09.978Z,24.61
2022-08-08T10:09:08.364Z,24.61
2022-08-08T10:10:07.919Z,24.61
2022-08-08T10:12:22.490Z,24.61
2022-08-08T10:12:27.158Z,24.61
2022-08-08T10:13:14.853Z,24.61
2022-08-08T10:14:10.839Z,24.61
2022-08-08T10:15:18.732Z,24.61
2022-08-08T10:16:09.139Z,24.6
2022-08-08T10:17:56.172Z,24.6
2022-08-08T10:18:11.961Z,24.6
2022-08-08T10:19:07.914Z,24.6
2022-08-08T10:20:07.925Z,24.6
2022-08-08T10:21:22.503Z,24.61
2022-08-08T10:22:07.930Z,24.61
2022-08-08T10:26:29.993Z,24.6
2022-08-08T10:27:13.754Z,24.6
2022-08-08T10:28:07.920Z,24.6
2022-08-08T10:29:07.926Z,24.61
2022-08-08T10:30:07.930Z,24.61
2022-08-08T10:31:07.919Z,24.6
2022-08-08T10:32:07.912Z,24.6
2022-08-08T10:33:07.931Z,24.6
2022-08-08T10:34:19.025Z,24.6
2022-08-08T10:35:11.624Z,24.6
2022-08-08T10:36:20.962Z,24.61
2022-08-08T10:37:07.920Z,24.61
2022-08-08T10:38:08.516Z,24.61
2022-08-08T10:39:08.019Z,24.61
2022-08-08T10:40:08.027Z,24.61
2022-08-08T10:41:07.933Z,24.61
2022-08-08T10:42:16.661Z,24.61
2022-08-08T10:43:09.892Z,24.61
2022-08-08T10:44:07.940Z,24.61
2022-08-08T10:45:09.202Z,24.61
2022-08-08T10:46:07.916Z,24.61
2022-08-08T10:47:07.926Z,24.61
2022-08-08T10:48:07.933Z,24.61
2022-08-08T10:49:07.933Z,24.61
2022-08-08T10:50:07.914Z,24.61
2022-08-08T10:51:07.924Z,24.61
2022-08-08T10:52:07.918Z,24.61
2022-08-08T10:53:11.566Z,24.61
2022-08-08T10:54:07.941Z,24.61
2022-08-08T10:55:07.916Z,24.61
2022-08-08T10:56:07.937Z,24.61
2022-08-08T10:57:08.962Z,24.61
2022-08-08T10:58:07.930Z,24.61
2022-08-08T10:59:08.324Z,24.61
2022-08-08T11:00:07.950Z,24.61
2022-08-08T11:01:10.734Z,24.61
2022-08-08T11:02:08.001Z,24.61
2022-08-08T11:03:07.921Z,24.61
2022-08-08T11:04:07.928Z,24.61
2022-08-08T11:05:14.961Z,24.61
2022-08-08T11:06:12.633Z,24.61
2022-08-08T11:07:15.077Z,24.62
2022-08-08T11:08:36.927Z,24.61
2022-08-08T11:09:15.050Z,24.62
2022-08-08T11:10:08.014Z,24.61
2022-08-08T11:11:32.722Z,24.63
2022-08-08T11:12:13.053Z,24.63
2022-08-08T11:13:27.997Z,24.62
2022-08-08T11:14:07.929Z,24.63
2022-08-08T11:15:07.911Z,24.63
2022-08-08T11:16:11.571Z,24.64
2022-08-08T11:17:08.713Z,24.64
2022-08-08T11:18:07.918Z,24.63
2022-08-08T11:19:10.747Z,24.64
2022-08-08T11:20:12.303Z,24.64
2022-08-08T11:21:08.977Z,24.64
2022-08-08T11:22:07.917Z,24.64
2022-08-08T11:23:07.919Z,24.64
2022-08-08T11:24:07.943Z,24.64
2022-08-08T11:25:14.195Z,24.65
2022-08-08T11:26:07.934Z,24.63
2022-08-08T11:27:19.257Z,24.63
2022-08-08T11:28:07.927Z,24.64
2022-08-08T11:29:07.941Z,24.65
2022-08-08T11:30:24.468Z,24.64
2022-08-08T11:31:09.583Z,24.65
2022-08-08T11:32:07.917Z,24.65
2022-08-08T11:33:12.217Z,24.65
2022-08-08T11:34:25.710Z,24.65
2022-08-08T11:35:27.868Z,24.65
2022-08-08T11:36:07.929Z,24.66
2022-08-08T11:37:15.221Z,24.67
2022-08-08T11:38:35.566Z,24.66
2022-08-08T11:39:10.809Z,24.65
2022-08-08T11:40:07.998Z,24.66
2022-08-08T11:41:07.999Z,24.67
2022-08-08T11:42:09.143Z,24.68
2022-08-08T11:43:07.916Z,24.67
2022-08-08T11:44:07.941Z,24.67
2022-08-08T11:45:07.912Z,24.7
2022-08-08T11:46:13.514Z,24.7
2022-08-08T11:47:12.822Z,24.7
2022-08-08T11:48:09.850Z,24.69
2022-08-08T11:49:08.693Z,24.69
2022-08-08T11:50:10.040Z,24.71
2022-08-08T11:51:30.162Z,24.73
2022-08-08T11:52:07.920Z,24.72
2022-08-08T11:53:07.913Z,24.67
2022-08-08T11:54:27.308Z,24.71
2022-08-08T11:55:07.915Z,24.69
2022-08-08T11:56:07.938Z,24.72
2022-08-08T11:57:14.073Z,24.72
2022-08-08T11:58:14.449Z,24.73
2022-08-08T11:59:07.930Z,24.68
2022-08-08T12:00:09.775Z,24.68
2022-08-08T12:01:12.254Z,24.76
2022-08-08T12:02:31.188Z,24.75
2022-08-08T12:03:07.977Z,24.75
2022-08-08T12:04:07.941Z,24.73
2022-08-08T12:05:07.909Z,24.75
2022-08-08T12:06:07.920Z,24.75
2022-08-08T12:07:08.129Z,24.73
2022-08-08T12:08:07.929Z,24.73
2022-08-08T12:09:07.943Z,24.74
2022-08-08T12:10:08.016Z,24.72
2022-08-08T12:11:07.924Z,24.72
2022-08-08T12:12:07.910Z,24.74
2022-08-08T12:13:09.677Z,24.73
2022-08-08T12:14:11.048Z,24.67
2022-08-08T12:15:09.592Z,24.7
2022-08-08T12:16:07.915Z,24.7
2022-08-08T12:17:07.919Z,24.71
2022-08-08T12:18:07.922Z,24.7
2022-08-08T12:19:07.930Z,24.69
2022-08-08T12:20:07.929Z,24.69
2022-08-08T12:21:07.924Z,24.69
2022-08-08T12:22:08.909Z,24.68
2022-08-08T12:23:25.078Z,24.68
2022-08-08T12:24:07.933Z,24.68
2022-08-08T12:25:07.920Z,24.67
2022-08-08T12:26:07.954Z,24.71
2022-08-08T12:27:07.918Z,24.72
2022-08-08T12:28:11.708Z,24.73
2022-08-08T12:29:07.936Z,24.73
2022-08-08T12:30:18.580Z,24.73
2022-08-08T12:31:08.704Z,24.73
2022-08-08T12:32:09.461Z,24.73
2022-08-08T12:33:08.794Z,24.73
2022-08-08T12:34:07.930Z,24.73
2022-08-08T12:35:17.421Z,24.71
2022-08-08T12:36:07.943Z,24.72
2022-08-08T12:37:08.160Z,24.72
2022-08-08T12:38:07.956Z,24.73
2022-08-08T12:39:08.015Z,24.74
2022-08-08T12:40:07.958Z,24.75
2022-08-08T12:41:18.121Z,24.78
2022-08-08T12:42:07.911Z,24.75
2022-08-08T12:43:07.917Z,24.76
2022-08-08T12:44:07.930Z,24.76
2022-08-08T12:45:14.449Z,24.74
2022-08-08T12:46:07.912Z,24.76
2022-08-08T12:47:09.024Z,24.73
2022-08-08T12:48:18.296Z,24.74
2022-08-08T12:49:40.187Z,24.74
2022-08-08T12:50:07.918Z,24.72
2022-08-08T12:51:11.352Z,24.68
2022-08-08T12:52:28.030Z,24.75
2022-08-08T12:53:07.928Z,24.75
2022-08-08T12:54:24.522Z,24.77
2022-08-08T12:55:09.416Z,24.77
2022-08-08T12:56:18.191Z,24.75
2022-08-08T12:57:07.929Z,24.74
2022-08-08T12:58:07.919Z,24.73
2022-08-08T12:59:07.929Z,24.73
2022-08-08T13:00:13.649Z,24.73
2022-08-08T13:01:07.948Z,24.7
2022-08-08T13:02:08.104Z,24.71
2022-08-08T13:03:07.917Z,24.73
2022-08-08T13:04:07.940Z,24.73
2022-08-08T13:05:25.685Z,24.73
2022-08-08T13:06:13.709Z,24.75
2022-08-08T13:07:07.918Z,24.76
2022-08-08T13:08:07.927Z,24.74
2022-08-08T13:09:07.931Z,24.74
2022-08-08T13:10:10.647Z,24.74